Tiempo atmosférico en la estación meteorológica de Aguilar de la Frontera, Córdoba (305 m.)



Fecha
DESCASC
Temp. máxima en grados centígrados (hora)
DESCASC
Temp. mínima en grados centígrados (hora)
DESCASC
Temp. media en grados centígrados
DESCASC
Racha de viento máxima en m/sg (hora)
DESCASC
Velocidad máxima media en intervalos de 10 minutos(hora)
DESCASC
Precipitaciones diarias en mm
DESCASC
Precipitaciones de 00:00 a 06:00 en mm
DESCASC
Precipitaciones de 06:00 a 12:00 en mm
DESCASC
Precipitaciones de 12:00 a 18:00 en mm
DESCASC
Precipitaciones de 18:00 a 24:00 en mm
DESCASC
25-01-2020 11.6 (17:20) 8.7 (06:30) 10.2 7.22 (03:40) 3.89 (03:40) 21 1.8 5.6 6.2 7.4
24-01-2020 15 (13:10) 7.6 (08:20) 11.3 8.33 (01:10) 4.72 (01:10) 9.6 4 0 0.2 5.4
23-01-2020 12.1 (14:30) 7.7 (01:10) 9.9 12.22 (16:10) 7.22 (15:50) 8.4 0 2.8 0.2 5.4
22-01-2020 13.1 (14:30) 6.9 (00:00) 10 7.78 (14:00) 4.72 (14:10) 3 2.2 0.6 0.2 0
21-01-2020 11 (14:30) 6.1 (00:00) 8.5 12.5 (01:10) 8.33 (01:10) 0.2 0 0 0 0.2
20-01-2020 9.8 (17:20) 3.9 (00:00) 6.9 15.28 (05:10) 10.28 (11:40) 0 0 0 0 0
19-01-2020 12.9 (00:00) 6.1 (00:00) 9.5 13.61 (23:00) 8.33 (22:30) 0 0 0 0 0
18-01-2020 14 (22:20) 7 (00:00) 10.5 10.83 (23:00) 6.67 (23:00) 4.4 0 1.6 1.6 1.2
17-01-2020 16.7 (16:20) 7.7 (00:00) 12.2 6.39 (03:50) 5.28 (03:20) 0.4 0 0.4 0 0
16-01-2020 18 (14:20) 3.4 (00:00) 10.7 6.39 (15:10) 4.44 (05:10) 0 0 0 0 0
15-01-2020 16.8 (16:00) 3.1 (00:00) 9.9 5.28 (04:20) 4.17 (06:30) 0 0 0 0 0
14-01-2020 13.9 (14:30) 2 (00:00) 7.9 4.72 (00:10) 3.89 (00:10) 0 0 0 0 0
13-01-2020 14.7 (14:40) 2.4 (00:00) 8.5 5.28 (11:20) 3.89 (02:30) 0 0 0 0 0
12-01-2020 14.5 (16:40) 2.4 (00:00) 8.5 5 (15:30) 3.61 (02:10) 0 0 0 0 0
11-01-2020 14.6 (15:00) 0.6 (00:00) 7.6 6.11 (21:40) 4.17 (23:00) 0 0 0 0 0
10-01-2020 13.8 (16:10) 5.1 (00:00) 9.5 10.83 (16:30) 6.11 (16:30) 0 0 0 0 0
09-01-2020 15.9 (15:10) 4.2 (00:00) 10 6.94 (02:00) 4.17 (02:00) 0 0 0 0 0
08-01-2020 17 (16:30) 1.3 (00:00) 9.1 6.11 (23:50) 5 (23:00) 0 0 0 0 0
07-01-2020 17.4 (17:20) 2.3 (00:00) 9.8 5.28 (04:10) 3.89 (04:10) 0 0 0 0 0
06-01-2020 15.4 (15:40) 4 (00:00) 9.7 5 (05:50) 4.17 (06:20) 0 0 0 0 0
05-01-2020 14.5 (16:40) 3.9 (00:00) 9.2 3.61 (22:10) 3.33 (22:10) 0 0 0 0 0
04-01-2020 12.9 (14:40) 5.2 (00:00) 9 5.56 (11:40) 4.17 (11:20) 0 0 0 0 0
03-01-2020 12.7 (15:10) 4.1 (00:00) 8.4 5.28 (15:50) 3.61 (01:00) 0 0 0 0 0
02-01-2020 15.9 (14:00) 4.7 (00:00) 10.3 7.5 (09:10) 5.28 (08:50) 0 0 0 0 0
01-01-2020 16.6 (15:30) 3.5 (00:00) 10.1 5 (04:50) 3.89 (00:40) 0 0 0 0 0
31-12-2019 17.9 (16:10) 4.2 (00:00) 11 6.39 (20:50) 4.72 (20:50) 0 0 0 0 0
30-12-2019 -- (--) -- (--) -- -- (--) -- (--) -- 0 0 -- 0
29-12-2019 18.3 (15:20) 5.8 (00:00) 12 6.11 (10:00) 4.17 (06:10) 0 0 0 0 0
28-12-2019 20.5 (15:30) 6.6 (00:00) 13.5 6.94 (23:30) 4.72 (03:00) 0 0 0 0 0

Gráficas

Temp. máximas Temp. mínimas Temp. medias Precipitaciones Rachas de viento máximas Velocidades máximas media en intervalos de 10 minutos

Datos horarios

Fecha y hora oficial Temperatura (ºC) Velocidad del viento (km/h) Dirección del viento Racha (km/h) Dirección de racha Precipitación (mm) Presión (hPa) Tendencia (hPa) Humedad (%)
2020-01-26 23:00:00 6.2 5 Este 10 Este 0 -- -- 97
2020-01-26 22:00:00 5.6 5 Sudeste 9 Este 0 -- -- 96
2020-01-26 21:00:00 6.1 0 Calma 2 Sudeste 0 -- -- 93
2020-01-26 20:00:00 7.2 0 Calma 5 Este 0 -- -- 92
2020-01-26 19:00:00 9.6 2 Sur 9 Oeste 0 -- -- 85
2020-01-26 18:00:00 11.8 6 Oeste 10 Sudoeste 0 -- -- 78
2020-01-26 17:00:00 12.4 5 Oeste 12 Oeste 0 -- -- 77
2020-01-26 16:00:00 12.2 7 Oeste 12 Oeste 0 -- -- 78
2020-01-26 15:00:00 11.2 7 Oeste 18 Oeste 0 -- -- 85
2020-01-26 14:00:00 10.5 7 Noroeste 15 Oeste 0 -- -- 86
2020-01-26 13:00:00 10.4 7 Oeste 10 Oeste 0 -- -- 92
2020-01-26 12:00:00 9.2 8 Oeste 15 Oeste 0 -- -- 96
2020-01-26 11:00:00 9.2 3 Oeste 10 Oeste 0 -- -- 99
2020-01-26 10:00:00 9.1 4 Sudoeste 9 Sudoeste 0 -- -- 100
2020-01-26 09:00:00 8.6 4 Sur 6 Sudoeste 0 -- -- 100
2020-01-26 08:00:00 8.8 5 Sudoeste 9 Sudoeste 0 -- -- 100
2020-01-26 07:00:00 9 3 Oeste 9 Oeste 0 -- -- 100
2020-01-26 06:00:00 9 6 Sudoeste 13 Oeste 0 -- -- 100
2020-01-26 05:00:00 9.2 7 Oeste 14 Oeste 0.2 -- -- 100
2020-01-26 04:00:00 9.4 9 Oeste 14 Sudoeste 0 -- -- 99
2020-01-26 03:00:00 9.4 6 Sudoeste 12 Sudoeste 0 -- -- 99
2020-01-26 02:00:00 9.4 8 Sudoeste 14 Sudoeste 0.6 -- -- 99
2020-01-26 01:00:00 9.4 2 Sudoeste 5 Oeste 0.6 -- -- 98
2020-01-26 00:00:00 9.3 0 Calma 3 Sudeste 0.2 -- -- 98
2020-01-25 23:00:00 9.3 0 Calma 4 Este 0.2 -- -- 97
2020-01-25 22:00:00 9.2 3 Este 4 Este 0 -- -- 97
2020-01-25 21:00:00 9.4 0 Calma 12 Noroeste 0.8 -- -- 97
2020-01-25 20:00:00 9.5 12 Noroeste 19 Oeste 6.2 -- -- 95
2020-01-25 19:00:00 10.3 7 Sur 15 Sur 0 -- -- 91
2020-01-25 18:00:00 11 7 Sur 16 Sudeste 0 -- -- 90
2020-01-25 17:00:00 11.3 6 Sudeste 17 Sudeste 0 -- -- 94
2020-01-25 16:00:00 10.7 7 Sudeste 14 Sudeste 0.8 -- -- 96
2020-01-25 15:00:00 10.5 6 Este 12 Este 1 -- -- 97
2020-01-25 14:00:00 9.7 3 Noroeste 9 Oeste 2.8 -- -- 97
2020-01-25 13:00:00 10.1 3 Oeste 7 Oeste 1.6 -- -- 95
2020-01-25 12:00:00 10 0 Calma 5 Sur 1.4 -- -- 96
2020-01-25 11:00:00 9.6 4 Sur 20 Sudeste 1 -- -- 95
2020-01-25 10:00:00 9.4 9 Sudeste 13 Sudeste 0.6 -- -- 94
2020-01-25 09:00:00 9.1 10 Sudeste 19 Este 0 -- -- 94
2020-01-25 08:00:00 8.9 9 Este 14 Este 0.6 -- -- 96
2020-01-25 07:00:00 8.8 6 Sudeste 18 Sudeste 2 -- -- 95
2020-01-25 06:00:00 8.9 11 Sudeste 19 Sudeste 1.4 -- -- 94
2020-01-25 05:00:00 9.1 10 Sudeste 19 Este 0 -- -- 91
2020-01-25 04:00:00 9.1 12 Sudeste 26 Sudeste 0.2 -- -- 90
2020-01-25 03:00:00 9.5 11 Sudeste 19 Sudeste 0 -- -- 91
2020-01-25 02:00:00 9.3 8 Sudeste 15 Sudeste 0 -- -- 94
2020-01-25 01:00:00 9.4 8 Sudeste 14 Sudeste 0.2 -- -- 94
2020-01-25 00:00:00 9.6 6 Sur 17 Sudeste 0.2 -- -- 94
2020-01-24 23:00:00 9.6 9 Sudeste 17 Sudeste 1.8 -- -- 94
2020-01-24 22:00:00 9.8 9 Sudeste 17 Este 0.6 -- -- 93
2020-01-24 21:00:00 9.8 6 Este 8 Este 0.6 -- -- 94
2020-01-24 20:00:00 10.4 2 Oeste 5 Sudoeste 1.8 -- -- 93
2020-01-24 19:00:00 11.1 2 Este 7 Sudeste 0.4 -- -- 89
2020-01-24 18:00:00 12.2 2 Este 14 Sudeste 0.2 -- -- 84
2020-01-24 17:00:00 13.5 9 Sudeste 17 Sudeste 0 -- -- 68
2020-01-24 16:00:00 13.6 6 Sudeste 21 Sudeste 0 -- -- 69
2020-01-24 15:00:00 14.2 12 Sudeste 20 Sudeste 0 -- -- 67
2020-01-24 14:00:00 14.7 11 Sur 20 Sudeste 0 -- -- 67
2020-01-24 13:00:00 14.8 12 Sudeste 22 Sudeste 0 -- -- 64
2020-01-24 12:00:00 14 14 Sudeste 26 Sudeste 0 -- -- 67
2020-01-24 11:00:00 11.4 9 Este 17 Sudeste 0 -- -- 80
2020-01-24 10:00:00 10.6 10 Sudeste 17 Sudeste 0 -- -- 81
2020-01-24 09:00:00 7.8 10 Sudeste 14 Este 0 -- -- 89
2020-01-24 08:00:00 8 11 Sudeste 17 Sudeste 0 -- -- 90
2020-01-24 07:00:00 8.5 12 Sudeste 17 Este 0 -- -- 89
2020-01-24 06:00:00 8.2 9 Sudeste 18 Sudeste 0 -- -- 93
2020-01-24 05:00:00 8.2 10 Sudeste 20 Sudeste 0 -- -- 92
2020-01-24 04:00:00 8.4 13 Sudeste 24 Sudeste 0 -- -- 93
2020-01-24 03:00:00 8.4 12 Sudeste 24 Sudeste 0 -- -- 92
2020-01-24 02:00:00 8.5 15 Sudeste 30 Sudeste 1.8 -- -- 94
2020-01-24 01:00:00 8.7 13 Sudeste 21 Sudeste 2.2 -- -- 95
2020-01-24 00:00:00 8.8 9 Sudeste 17 Este 2.4 -- -- 96
2020-01-23 23:00:00 8.8 10 Este 14 Este 2.4 -- -- 96
2020-01-23 22:00:00 8.8 3 Nordeste 6 Nordeste 0.4 -- -- 95
2020-01-23 21:00:00 9 0 Calma 5 Sur 0 -- -- 92
2020-01-23 20:00:00 9.4 6 Sur 17 Sudeste 0.2 -- -- 90
2020-01-23 19:00:00 10 8 Sudeste 18 Sudeste 0 -- -- 84
2020-01-23 18:00:00 10.6 13 Sudeste 31 Sudeste 0 -- -- 78
2020-01-23 17:00:00 11.7 19 Sudeste 44 Sudeste 0 -- -- 70
2020-01-23 16:00:00 12 24 Sudeste 41 Sudeste 0 -- -- 68
2020-01-23 15:00:00 11.9 24 Sudeste 40 Sudeste 0 -- -- 74
2020-01-23 14:00:00 11.5 17 Sudeste 30 Sudeste 0 -- -- 77
2020-01-23 13:00:00 11.1 15 Sudeste 28 Este 0.2 -- -- 80
2020-01-23 12:00:00 8.2 19 Este 33 Este 2.4 -- -- 93
2020-01-23 11:00:00 8.5 16 Sudeste 27 Sudeste 0.4 -- -- 89
2020-01-23 10:00:00 9.1 13 Sudeste 22 Sudeste 0 -- -- 83
2020-01-23 09:00:00 9.1 17 Sudeste 31 Sudeste 0 -- -- 82
2020-01-23 08:00:00 8.6 15 Este 24 Este 0 -- -- 83
2020-01-23 07:00:00 8.5 12 Sudeste 29 Sudeste 0 -- -- 85
2020-01-23 06:00:00 9.2 17 Sudeste 27 Este 0 -- -- 77
2020-01-23 05:00:00 9.2 12 Este 22 Este 0 -- -- 77
2020-01-23 04:00:00 8.1 9 Este 14 Este 0 -- -- 82
2020-01-23 03:00:00 8.5 8 Sudeste 15 Sudeste 0 -- -- 79
2020-01-23 02:00:00 7.7 7 Sudeste 17 Este 0 -- -- 83
2020-01-23 01:00:00 7.9 8 Sudeste 14 Este 0 -- -- 84
2020-01-23 00:00:00 8.2 9 Sudeste 15 Sudeste 0 -- -- 84
2020-01-22 23:00:00 8.6 8 Sudeste 17 Sudeste 0 -- -- 77
2020-01-22 22:00:00 8.2 10 Este 14 Sudeste 0 -- -- 80
2020-01-22 21:00:00 8.4 5 Este 17 Sudeste 0 -- -- 78
2020-01-22 20:00:00 9.4 9 Sudeste 18 Sudeste 0 -- -- 74
2020-01-22 19:00:00 9.6 7 Sudeste 13 Sudeste 0 -- -- 81
2020-01-22 18:00:00 10.7 8 Sudeste 22 Sur 0 -- -- 73
2020-01-22 17:00:00 12 12 Sudeste 21 Sudeste 0 -- -- 67
2020-01-22 16:00:00 12.8 10 Sudeste 23 Este 0 -- -- 65
2020-01-22 15:00:00 12.4 13 Sudeste 27 Este 0.2 -- -- 63
2020-01-22 14:00:00 12.8 15 Sudeste 28 Este 0 -- -- 65
2020-01-22 13:00:00 10.9 7 Este 15 Este 0 -- -- 76
2020-01-22 12:00:00 9.9 8 Este 13 Este 0 -- -- 82
2020-01-22 11:00:00 8.8 2 Este 7 Este 0 -- -- 91
2020-01-22 10:00:00 7.6 5 Este 11 Este 0 -- -- 93
2020-01-22 09:00:00 6.9 5 Este 12 Este 0 -- -- 96
2020-01-22 08:00:00 6.9 6 Este 14 Nordeste 0.2 -- -- 95
2020-01-22 07:00:00 6.9 9 Nordeste 15 Nordeste 0.4 -- -- 95
2020-01-22 06:00:00 7.1 6 Este 11 Este 0.4 -- -- 94
2020-01-22 05:00:00 7 6 Este 12 Este 0.8 -- -- 94
2020-01-22 04:00:00 7 0 Calma 4 Este 0.4 -- -- 95
2020-01-22 03:00:00 7.1 0 Calma 8 Sudeste 0.4 -- -- 94
2020-01-22 02:00:00 7.3 3 Sudeste 10 Este 0.2 -- -- 92
2020-01-22 01:00:00 7.2 5 Este 9 Este 0 -- -- 92
2020-01-22 00:00:00 7.3 4 Este 9 Este 0.2 -- -- 91
2020-01-21 23:00:00 7.6 4 Este 13 Este 0 -- -- 86
2020-01-21 22:00:00 7.5 9 Este 19 Nordeste 0 -- -- 84
2020-01-21 21:00:00 7.6 12 Este 17 Este 0 -- -- 82
2020-01-21 20:00:00 8.4 8 Nordeste 22 Nordeste 0 -- -- 79
2020-01-21 19:00:00 9.2 12 Norte 25 Nordeste 0 -- -- 72
2020-01-21 18:00:00 9.6 13 Norte 24 Norte 0 -- -- 69
2020-01-21 17:00:00 10 8 Norte 26 Norte 0 -- -- 68
2020-01-21 16:00:00 10.3 13 Norte 23 Norte 0 -- -- 66
2020-01-21 15:00:00 10.2 14 Norte 30 Nordeste 0 -- -- 65
2020-01-21 14:00:00 10.2 19 Nordeste 40 Nordeste 0 -- -- 65
2020-01-21 13:00:00 9.3 26 Nordeste 42 Nordeste 0 -- -- 66
2020-01-21 12:00:00 8.4 24 Nordeste 41 Nordeste 0 -- -- 69
2020-01-21 11:00:00 7.7 28 Nordeste 44 Nordeste 0 -- -- 72
2020-01-21 10:00:00 7.2 10 Norte 30 Nordeste 0 -- -- 76
2020-01-21 09:00:00 6.3 14 Nordeste 33 Nordeste 0 -- -- 77
2020-01-21 08:00:00 6.7 23 Nordeste 40 Nordeste 0 -- -- 74
2020-01-21 07:00:00 6.2 17 Nordeste 33 Norte 0 -- -- 77
2020-01-21 06:00:00 6.1 17 Nordeste 31 Nordeste 0 -- -- 78
2020-01-21 05:00:00 6.6 16 Nordeste 27 Nordeste 0 -- -- 76
2020-01-21 04:00:00 7 15 Nordeste 27 Nordeste 0 -- -- 74
2020-01-21 03:00:00 7.1 14 Nordeste 35 Nordeste 0 -- -- 75
2020-01-21 02:00:00 7.4 20 Nordeste 45 Nordeste 0 -- -- 73
2020-01-21 01:00:00 7.7 28 Nordeste 42 Nordeste 0 -- -- 72
2020-01-21 00:00:00 8 24 Nordeste 48 Nordeste 0 -- -- 70
2020-01-20 23:00:00 7.8 16 Nordeste 32 Norte 0 -- -- 72
2020-01-20 22:00:00 8 15 Nordeste 40 Nordeste 0 -- -- 71
2020-01-20 21:00:00 8.2 25 Nordeste 46 Nordeste 0 -- -- 69
2020-01-20 20:00:00 8.2 21 Nordeste 35 Nordeste 0 -- -- 69
2020-01-20 19:00:00 8.8 15 Norte 31 Norte 0 -- -- 67
2020-01-20 18:00:00 9.6 17 Norte 44 Nordeste 0 -- -- 62
2020-01-20 17:00:00 9.7 13 Norte 40 Nordeste 0 -- -- 63
2020-01-20 16:00:00 9.3 23 Nordeste 52 Nordeste 0 -- -- 62
2020-01-20 15:00:00 9.6 20 Nordeste 42 Nordeste 0 -- -- 61
2020-01-20 14:00:00 7.3 28 Nordeste 48 Nordeste 0 -- -- 66
2020-01-20 13:00:00 6 20 Nordeste 50 Nordeste 0 -- -- 68
2020-01-20 12:00:00 5.9 25 Nordeste 55 Nordeste 0 -- -- 66
2020-01-20 11:00:00 4.6 33 Nordeste 53 Nordeste 0 -- -- 70
2020-01-20 10:00:00 4.6 24 Nordeste 47 Norte 0 -- -- 67
2020-01-20 09:00:00 4.1 31 Nordeste 53 Nordeste 0 -- -- 72
2020-01-20 08:00:00 4.8 24 Nordeste 48 Nordeste 0 -- -- 64
2020-01-20 07:00:00 5.1 24 Nordeste 44 Norte 0 -- -- 62
2020-01-20 06:00:00 5 20 Nordeste 55 Nordeste 0 -- -- 66
2020-01-20 05:00:00 5.4 28 Nordeste 52 Nordeste 0 -- -- 64
2020-01-20 04:00:00 5.2 20 Nordeste 53 Nordeste 0 -- -- 68
2020-01-20 03:00:00 5.6 28 Nordeste 45 Nordeste 0 -- -- 71
2020-01-20 02:00:00 5.8 22 Nordeste 42 Nordeste 0 -- -- 72
2020-01-20 01:00:00 6 25 Nordeste 45 Nordeste 0 -- -- 75
2020-01-20 00:00:00 6.1 20 Nordeste 44 Nordeste 0 -- -- 80
2020-01-19 23:00:00 6.3 26 Nordeste 49 Nordeste 0 -- -- 80
2020-01-19 22:00:00 6.5 24 Norte 44 Nordeste 0 -- -- 81
2020-01-19 21:00:00 7.1 27 Norte 46 Nordeste 0 -- -- 79
2020-01-19 20:00:00 7.6 25 Norte 44 Nordeste 0 -- -- 78
2020-01-19 19:00:00 9.3 22 Norte 46 Norte 0 -- -- 68
2020-01-19 18:00:00 9.7 12 Norte 33 Norte 0 -- -- 72
2020-01-19 17:00:00 10.3 16 Norte 37 Nordeste 0 -- -- 69
2020-01-19 16:00:00 11.1 21 Norte 39 Norte 0 -- -- 65
2020-01-19 15:00:00 11.4 18 Norte 37 Nordeste 0 -- -- 70
2020-01-19 14:00:00 10.5 20 Norte 37 Norte 0 -- -- 71
2020-01-19 13:00:00 11.3 15 Noroeste 27 Noroeste 0 -- -- 74
2020-01-19 12:00:00 10.7 16 Noroeste 26 Noroeste 0 -- -- 80
2020-01-19 11:00:00 9.2 14 Oeste 21 Oeste 0 -- -- 90
2020-01-19 10:00:00 8 11 Oeste 17 Oeste 0 -- -- 95
2020-01-19 09:00:00 7.7 11 Oeste 15 Oeste 0 -- -- 96
2020-01-19 08:00:00 7.8 11 Oeste 20 Oeste 0 -- -- 97
2020-01-19 07:00:00 8.1 10 Oeste 21 Oeste 0 -- -- 99
2020-01-19 06:00:00 8.6 14 Oeste 19 Oeste 0 -- -- 99
2020-01-19 05:00:00 9.4 16 Oeste 27 Oeste 0 -- -- 99
2020-01-19 04:00:00 9.9 10 Oeste 28 Oeste 0 -- -- 99
2020-01-19 03:00:00 10.6 13 Oeste 22 Oeste 0 -- -- 98
2020-01-19 02:00:00 11.5 17 Oeste 34 Oeste 0 -- -- 98
2020-01-19 01:00:00 12 15 Oeste 34 Oeste 0 -- -- 98
2020-01-19 00:00:00 12.9 21 Oeste 37 Oeste 0 -- -- 97
2020-01-18 23:00:00 13.9 24 Sudoeste 39 Oeste 0 -- -- 98
2020-01-18 22:00:00 13.8 17 Sudoeste 33 Sudoeste 0.8 -- -- 98
2020-01-18 21:00:00 13.9 19 Sudoeste 33 Sur 0.2 -- -- 97
2020-01-18 20:00:00 13.4 15 Sudoeste 30 Sudoeste 0 -- -- 97
2020-01-18 19:00:00 11.5 16 Sudeste 27 Sudeste 0.2 -- -- 95
2020-01-18 18:00:00 11.9 14 Sudeste 23 Sudeste 1.4 -- -- 95
2020-01-18 17:00:00 12.2 13 Sudeste 20 Sudeste 0.2 -- -- 93
2020-01-18 16:00:00 13.6 12 Sur 22 Sudeste 0 -- -- 77
2020-01-18 15:00:00 13.4 14 Sudeste 22 Sudeste 0 -- -- 73
2020-01-18 14:00:00 12.5 16 Sudeste 27 Sudeste 0 -- -- 79
2020-01-18 13:00:00 11.2 14 Sudeste 23 Sudeste 0 -- -- 86
2020-01-18 12:00:00 9.5 16 Sudeste 24 Sudeste 0.2 -- -- 91
2020-01-18 11:00:00 9.2 13 Sudeste 24 Sudeste 0.6 -- -- 93
2020-01-18 10:00:00 8.5 5 Este 9 Sudeste 0.8 -- -- 93
2020-01-18 09:00:00 8.6 2 Nordeste 9 Este 0 -- -- 86
2020-01-18 08:00:00 8.4 3 Norte 21 Sudeste 0 -- -- 85
2020-01-18 07:00:00 8.5 16 Sur 23 Sudeste 0 -- -- 84
2020-01-18 06:00:00 8.2 13 Sudeste 17 Este 0 -- -- 87
2020-01-18 05:00:00 8.3 13 Sudeste 19 Este 0 -- -- 86
2020-01-18 04:00:00 8.1 13 Sudeste 20 Sudeste 0 -- -- 89
2020-01-18 03:00:00 7.8 0 Calma 18 Sudeste 0 -- -- 91
2020-01-18 02:00:00 7.5 12 Sudeste 15 Sudeste 0 -- -- 95
2020-01-18 01:00:00 7.2 3 Este 8 Sudeste 0 -- -- 93
2020-01-18 00:00:00 8.4 3 Sudeste 7 Este 0 -- -- 90
2020-01-17 23:00:00 9 3 Este 15 Este 0 -- -- 89
2020-01-17 22:00:00 9.1 6 Este 13 Nordeste 0 -- -- 91
2020-01-17 21:00:00 8.7 5 Sudeste 11 Sudeste 0 -- -- 90
2020-01-17 20:00:00 9.7 3 Este 4 Este 0 -- -- 87
2020-01-17 19:00:00 11.7 4 Sudoeste 5 Sudoeste 0 -- -- 77
2020-01-17 18:00:00 15.4 0 Calma 5 Noroeste 0 -- -- 65
2020-01-17 17:00:00 16.1 3 Este 7 Sudeste 0 -- -- 64
2020-01-17 16:00:00 15.7 2 Noroeste 8 Oeste 0 -- -- 67
2020-01-17 15:00:00 15.8 4 Sur 9 Sur 0 -- -- 69
2020-01-17 14:00:00 14.5 4 Sur 11 Sur 0 -- -- 76
2020-01-17 13:00:00 13.1 3 Sudeste 9 Sur 0 -- -- 74
2020-01-17 12:00:00 11.2 5 Sudeste 11 Sudeste 0 -- -- 87
2020-01-17 11:00:00 10.3 6 Sudoeste 15 Sudeste 0.4 -- -- 79
2020-01-17 10:00:00 9.8 9 Sudeste 19 Sudeste 0 -- -- 69
2020-01-17 09:00:00 9.9 13 Sudeste 16 Sudeste 0 -- -- 64
2020-01-17 08:00:00 8.9 12 Sudeste 20 Sudeste 0 -- -- 69
2020-01-17 07:00:00 9.3 13 Sudeste 19 Sudeste 0 -- -- 67
2020-01-17 06:00:00 8.5 17 Sudeste 20 Sudeste 0 -- -- 70
2020-01-17 05:00:00 8.7 11 Sudeste 23 Sudeste 0 -- -- 69
2020-01-17 04:00:00 8.6 18 Sudeste 23 Sudeste 0 -- -- 70
2020-01-17 03:00:00 7.9 17 Sudeste 21 Sudeste 0 -- -- 73
2020-01-17 02:00:00 9.6 17 Sudeste 20 Sudeste 0 -- -- 68
2020-01-17 01:00:00 9.2 12 Sudeste 17 Sudeste 0 -- -- 67
2020-01-17 00:00:00 7.7 10 Sudeste 13 Este 0 -- -- 72
2020-01-16 23:00:00 8.1 0 Calma 13 Sudeste 0 -- -- 69
2020-01-16 22:00:00 6.9 0 Calma 6 Sur 0 -- -- 75
2020-01-16 21:00:00 6.9 0 Calma 6 Sur 0 -- -- 76
2020-01-16 20:00:00 8.3 4 Sudeste 9 Sudeste 0 -- -- 72
2020-01-16 19:00:00 11.5 3 Sudeste 9 Oeste 0 -- -- 59
2020-01-16 18:00:00 15.2 8 Oeste 18 Oeste 0 -- -- 46
2020-01-16 17:00:00 16.9 10 Oeste 17 Oeste 0 -- -- 38
2020-01-16 16:00:00 17.3 12 Oeste 23 Oeste 0 -- -- 35
2020-01-16 15:00:00 17.5 13 Oeste 20 Oeste 0 -- -- 45
2020-01-16 14:00:00 17.4 8 Sudoeste 14 Sur 0 -- -- 41
2020-01-16 13:00:00 16.2 6 Sur 17 Sudoeste 0 -- -- 42
2020-01-16 12:00:00 14.7 11 Sudeste 17 Sudeste 0 -- -- 46
2020-01-16 11:00:00 11.6 7 Sudeste 14 Sudeste 0 -- -- 58
2020-01-16 10:00:00 8.1 4 Sudeste 15 Sudeste 0 -- -- 69
2020-01-16 09:00:00 3.9 0 Calma 8 Este 0 -- -- 84
2020-01-16 08:00:00 3.6 2 Sudeste 9 Sudeste 0 -- -- 89
2020-01-16 07:00:00 4.6 9 Sudeste 14 Sudeste 0 -- -- 87
2020-01-16 06:00:00 5.4 0 Calma 21 Sudeste 0 -- -- 80
2020-01-16 05:00:00 5.3 9 Sudeste 16 Sudeste 0 -- -- 81
2020-01-16 04:00:00 5.9 3 Sudeste 17 Sudeste 0 -- -- 80
2020-01-16 03:00:00 6.8 5 Sudeste 16 Sudeste 0 -- -- 79
2020-01-16 02:00:00 5.4 4 Este 7 Este 0 -- -- 85
2020-01-16 01:00:00 6 0 Calma 9 Sudeste 0 -- -- 82
2020-01-16 00:00:00 7.3 7 Sudeste 14 Sudeste 0 -- -- 79
2020-01-15 23:00:00 8.3 12 Sudeste 16 Sudeste 0 -- -- 77
2020-01-15 22:00:00 9.1 5 Este 15 Este 0 -- -- 75
2020-01-15 21:00:00 10 11 Sudeste 14 Este 0 -- -- 74
2020-01-15 20:00:00 9.5 0 Calma 8 Este 0 -- -- 79
2020-01-15 19:00:00 11.5 5 Este 7 Este 0 -- -- 73
2020-01-15 18:00:00 14.2 2 Noroeste 9 Oeste 0 -- -- 63
2020-01-15 17:00:00 16.7 2 Sudoeste 12 Oeste 0 -- -- 56
2020-01-15 16:00:00 16.8 3 Sudoeste 15 Noroeste 0 -- -- 54
2020-01-15 15:00:00 15.8 8 Noroeste 16 Oeste 0 -- -- 54
2020-01-15 14:00:00 15.5 4 Noroeste 13 Oeste 0 -- -- 52
2020-01-15 13:00:00 14.4 7 Oeste 13 Oeste 0 -- -- 57
2020-01-15 12:00:00 12.5 6 Sur 12 Sur 0 -- -- 59
2020-01-15 11:00:00 9.9 5 Este 10 Este 0 -- -- 69
2020-01-15 10:00:00 6.4 0 Calma 9 Sudeste 0 -- -- 81
2020-01-15 09:00:00 3.2 2 Este 8 Este 0 -- -- 89
2020-01-15 08:00:00 3.6 2 Oeste 11 Este 0 -- -- 89
2020-01-15 07:00:00 4.5 4 Este 19 Sudeste 0 -- -- 86
2020-01-15 06:00:00 4.7 0 Calma 13 Sudeste 0 -- -- 88
2020-01-15 05:00:00 5.1 4 Sudeste 19 Sudeste 0 -- -- 84
2020-01-15 04:00:00 4.1 2 Sur 8 Este 0 -- -- 88
2020-01-15 03:00:00 5.3 2 Sur 15 Sudeste 0 -- -- 83
2020-01-15 02:00:00 5.9 3 Sudeste 16 Sudeste 0 -- -- 80
2020-01-15 01:00:00 6.6 12 Sudeste 17 Sudeste 0 -- -- 79
2020-01-15 00:00:00 6.1 13 Sudeste 15 Sudeste 0 -- -- 82
2020-01-14 23:00:00 5.8 9 Sudeste 12 Sudeste 0 -- -- 84
2020-01-14 22:00:00 5.6 6 Sudeste 10 Sudeste 0 -- -- 84
2020-01-14 21:00:00 5.5 5 Sudeste 9 Este 0 -- -- 85
2020-01-14 20:00:00 6.9 3 Sudeste 6 Sudeste 0 -- -- 77
2020-01-14 19:00:00 9.2 2 Sudeste 4 Oeste 0 -- -- 70
2020-01-14 18:00:00 11.9 4 Oeste 8 Sudeste 0 -- -- 58
2020-01-14 17:00:00 12.4 7 Este 10 Este 0 -- -- 56
2020-01-14 16:00:00 13.2 4 Sudoeste 14 Oeste 0 -- -- 54
2020-01-14 15:00:00 13.1 7 Oeste 14 Sudoeste 0 -- -- 55
2020-01-14 14:00:00 12.3 6 Oeste 13 Oeste 0 -- -- 59
2020-01-14 13:00:00 13 8 Sur 13 Sur 0 -- -- 58
2020-01-14 12:00:00 12.2 5 Sur 10 Sudeste 0 -- -- 66
2020-01-14 11:00:00 9.2 6 Sudeste 13 Sudeste 0 -- -- 77
2020-01-14 10:00:00 7 8 Sudeste 16 Sudeste 0 -- -- 84
2020-01-14 09:00:00 4.4 9 Este 16 Este 0 -- -- 91
2020-01-14 08:00:00 3.4 3 Sudeste 9 Sudeste 0 -- -- 94
2020-01-14 07:00:00 2 4 Este 8 Este 0 -- -- 94
2020-01-14 06:00:00 2.4 3 Este 5 Nordeste 0 -- -- 94
2020-01-14 05:00:00 2.9 3 Este 7 Este 0 -- -- 94
2020-01-14 04:00:00 3.6 4 Este 7 Este 0 -- -- 91
2020-01-14 03:00:00 4.5 4 Sudeste 14 Sudeste 0 -- -- 88
2020-01-14 02:00:00 3.8 3 Este 13 Sudeste 0 -- -- 88
2020-01-14 01:00:00 5.5 11 Sudeste 17 Este 0 -- -- 82
2020-01-14 00:00:00 6 13 Sudeste 16 Sudeste 0 -- -- 79
2020-01-13 23:00:00 5.4 10 Sudeste 13 Sudeste 0 -- -- 84
2020-01-13 22:00:00 5.3 9 Sudeste 13 Sudeste 0 -- -- 86
2020-01-13 21:00:00 5.1 7 Este 8 Este 0 -- -- 87
2020-01-13 20:00:00 7.6 3 Este 7 Este 0 -- -- 77
2020-01-13 19:00:00 8.9 4 Este 8 Noroeste 0 -- -- 71
2020-01-13 18:00:00 11.5 5 Noroeste 9 Oeste 0 -- -- 61
2020-01-13 17:00:00 13.5 7 Oeste 14 Oeste 0 -- -- 53
2020-01-13 16:00:00 14.1 6 Oeste 13 Oeste 0 -- -- 47
2020-01-13 15:00:00 14 7 Noroeste 14 Oeste 0 -- -- 53
2020-01-13 14:00:00 14.1 6 Oeste 12 Oeste 0 -- -- 56
2020-01-13 13:00:00 13.9 4 Sur 14 Sudeste 0 -- -- 60
2020-01-13 12:00:00 12.1 8 Sur 19 Sudeste 0 -- -- 63
2020-01-13 11:00:00 9.9 11 Sudeste 18 Sudeste 0 -- -- 66
2020-01-13 10:00:00 6.4 10 Sudeste 17 Sudeste 0 -- -- 78
2020-01-13 09:00:00 3 9 Sudeste 14 Sudeste 0 -- -- 90
2020-01-13 08:00:00 2.8 6 Este 19 Sudeste 0 -- -- 88
2020-01-13 07:00:00 3.3 7 Sudeste 16 Sudeste 0 -- -- 87
2020-01-13 06:00:00 3.2 12 Sudeste 17 Sudeste 0 -- -- 89
2020-01-13 05:00:00 3.6 11 Sudeste 15 Sudeste 0 -- -- 88
2020-01-13 04:00:00 3.8 11 Sudeste 16 Este 0 -- -- 87
2020-01-13 03:00:00 5.1 9 Sudeste 18 Sudeste 0 -- -- 83
2020-01-13 02:00:00 4.8 12 Sudeste 17 Sudeste 0 -- -- 86
2020-01-13 01:00:00 3.8 7 Sudeste 12 Sudeste 0 -- -- 90
2020-01-13 00:00:00 3.5 7 Este 11 Sudeste 0 -- -- 90
2020-01-12 23:00:00 4.7 4 Este 8 Este 0 -- -- 86
2020-01-12 22:00:00 5.6 4 Este 9 Sudeste 0 -- -- 82
2020-01-12 21:00:00 5.4 5 Este 8 Este 0 -- -- 82
2020-01-12 20:00:00 6.7 5 Este 8 Este 0 -- -- 77
2020-01-12 19:00:00 9.7 2 Este 8 Noroeste 0 -- -- 66
2020-01-12 18:00:00 12.8 6 Noroeste 10 Noroeste 0 -- -- 56
2020-01-12 17:00:00 14.1 4 Norte 13 Noroeste 0 -- -- 54
2020-01-12 16:00:00 14.4 8 Noroeste 18 Noroeste 0 -- -- 54
2020-01-12 15:00:00 14.1 7 Norte 15 Noroeste 0 -- -- 56
2020-01-12 14:00:00 13.8 6 Norte 14 Noroeste 0 -- -- 59
2020-01-12 13:00:00 13.1 5 Norte 9 Noroeste 0 -- -- 66
2020-01-12 12:00:00 11.3 4 Noroeste 8 Noroeste 0 -- -- 73
2020-01-12 11:00:00 9 2 Noroeste 4 Noroeste 0 -- -- 82
2020-01-12 10:00:00 5.7 2 Este 8 Este 0 -- -- 94
2020-01-12 09:00:00 2.6 0 Calma 6 Este 0 -- -- 96
2020-01-12 08:00:00 2.7 0 Calma 7 Este 0 -- -- 94
2020-01-12 07:00:00 3.6 3 Este 11 Sudeste 0 -- -- 95
2020-01-12 06:00:00 3.6 9 Sudeste 10 Este 0 -- -- 93
2020-01-12 05:00:00 3.9 8 Sudeste 12 Sudeste 0 -- -- 90
2020-01-12 04:00:00 5.6 10 Sudeste 15 Sudeste 0 -- -- 85
2020-01-12 03:00:00 6 12 Sudeste 17 Sudeste 0 -- -- 86
2020-01-12 02:00:00 6.1 11 Sudeste 15 Sudeste 0 -- -- 88
2020-01-12 01:00:00 5.8 0 Calma 12 Sudeste 0 -- -- 86
2020-01-12 00:00:00 6.2 4 Sudeste 18 Sudeste 0 -- -- 81
2020-01-11 23:00:00 7.1 15 Sudeste 18 Sudeste 0 -- -- 77
2020-01-11 22:00:00 7.1 14 Sudeste 22 Sudeste 0 -- -- 78
2020-01-11 21:00:00 5.6 7 Sudeste 9 Sudeste 0 -- -- 83
2020-01-11 20:00:00 7.4 3 Este 7 Este 0 -- -- 74
2020-01-11 19:00:00 10.2 0 Calma 5 Norte 0 -- -- 64
2020-01-11 18:00:00 13.3 4 Norte 12 Norte 0 -- -- 54
2020-01-11 17:00:00 14.5 7 Norte 13 Norte 0 -- -- 49
2020-01-11 16:00:00 14.4 8 Norte 14 Norte 0 -- -- 50
2020-01-11 15:00:00 14.6 8 Norte 14 Norte 0 -- -- 49
2020-01-11 14:00:00 13.5 6 Norte 12 Noroeste 0 -- -- 53
2020-01-11 13:00:00 12.2 5 Norte 9 Noroeste 0 -- -- 57
2020-01-11 12:00:00 10.2 4 Norte 8 Noroeste 0 -- -- 63
2020-01-11 11:00:00 7.6 2 Noroeste 5 Noroeste 0 -- -- 72
2020-01-11 10:00:00 5.5 0 Calma 7 Este 0 -- -- 79
2020-01-11 09:00:00 0.8 3 Este 7 Sudeste 0 -- -- 92
2020-01-11 08:00:00 2.2 5 Este 9 Este 0 -- -- 84
2020-01-11 07:00:00 2 5 Este 6 Nordeste 0 -- -- 87
2020-01-11 06:00:00 3 4 Este 10 Este 0 -- -- 83
2020-01-11 05:00:00 2.3 8 Este 11 Este 0 -- -- 85
2020-01-11 04:00:00 3.9 7 Este 12 Nordeste 0 -- -- 78
2020-01-11 03:00:00 6 4 Nordeste 15 Nordeste 0 -- -- 70
2020-01-11 02:00:00 6.8 10 Este 17 Nordeste 0 -- -- 67
2020-01-11 01:00:00 7 10 Este 16 Este 0 -- -- 66
2020-01-11 00:00:00 8.6 9 Nordeste 21 Nordeste 0 -- -- 60
2020-01-10 23:00:00 7.4 12 Nordeste 16 Nordeste 0 -- -- 66
2020-01-10 22:00:00 6.9 7 Este 14 Este 0 -- -- 67
2020-01-10 21:00:00 8.3 11 Nordeste 17 Nordeste 0 -- -- 61
2020-01-10 20:00:00 8.9 6 Nordeste 15 Nordeste 0 -- -- 59
2020-01-10 19:00:00 10.8 10 Nordeste 27 Norte 0 -- -- 52
2020-01-10 18:00:00 12.9 13 Norte 27 Norte 0 -- -- 48
2020-01-10 17:00:00 13.7 16 Nordeste 39 Nordeste 0 -- -- 52
2020-01-10 16:00:00 13.6 17 Norte 31 Norte 0 -- -- 57
2020-01-10 15:00:00 13.5 18 Norte 31 Norte 0 -- -- 59
2020-01-10 14:00:00 12.7 14 Norte 25 Norte 0 -- -- 72
2020-01-10 13:00:00 11.5 8 Norte 14 Norte 0 -- -- 83
2020-01-10 12:00:00 10.6 4 Norte 12 Norte 0 -- -- 87
2020-01-10 11:00:00 9.5 4 Norte 8 Norte 0 -- -- 89
2020-01-10 10:00:00 8.3 0 Calma 3 Sudoeste 0 -- -- 93
2020-01-10 09:00:00 7.4 0 Calma 4 Este 0 -- -- 93
2020-01-10 08:00:00 7 0 Calma 3 Este 0 -- -- 93
2020-01-10 07:00:00 7.1 2 Este 10 Sudeste 0 -- -- 92
2020-01-10 06:00:00 7.3 9 Sudeste 12 Sudeste 0 -- -- 91
2020-01-10 05:00:00 7.3 10 Sudeste 12 Sudeste 0 -- -- 91
2020-01-10 04:00:00 7.4 10 Sudeste 14 Sudeste 0 -- -- 92
2020-01-10 03:00:00 6.3 9 Sudeste 17 Sudeste 0 -- -- 93
2020-01-10 02:00:00 5.9 14 Sudeste 15 Sudeste 0 -- -- 94
2020-01-10 01:00:00 6 5 Sudeste 11 Sudeste 0 -- -- 96
2020-01-10 00:00:00 5.1 4 Sudeste 11 Este 0 -- -- 96
2020-01-09 23:00:00 4.2 0 Calma 8 Este 0 -- -- 93
2020-01-09 22:00:00 5.3 3 Sudeste 7 Sudeste 0 -- -- 92
2020-01-09 21:00:00 6.3 3 Sudeste 11 Sudeste 0 -- -- 90
2020-01-09 20:00:00 8 2 Sudeste 5 Sudeste 0 -- -- 81
2020-01-09 19:00:00 10.3 0 Calma 10 Noroeste 0 -- -- 75
2020-01-09 18:00:00 13.3 4 Noroeste 8 Oeste 0 -- -- 64
2020-01-09 17:00:00 14.2 6 Noroeste 21 Noroeste 0 -- -- 62
2020-01-09 16:00:00 14.8 11 Noroeste 21 Noroeste 0 -- -- 63
2020-01-09 15:00:00 15.6 3 Oeste 9 Sur 0 -- -- 59
2020-01-09 14:00:00 15.2 3 Sudoeste 11 Oeste 0 -- -- 59
2020-01-09 13:00:00 14.4 5 Sur 17 Sudeste 0 -- -- 61
2020-01-09 12:00:00 13 10 Sudeste 22 Sudeste 0 -- -- 67
2020-01-09 11:00:00 11.4 10 Sudeste 17 Sudeste 0 -- -- 68
2020-01-09 10:00:00 8.4 12 Sudeste 17 Sudeste 0 -- -- 74
2020-01-09 09:00:00 5.7 14 Sudeste 19 Sudeste 0 -- -- 83
2020-01-09 08:00:00 5.9 13 Sudeste 17 Sudeste 0 -- -- 80
2020-01-09 07:00:00 6.4 13 Sudeste 20 Sudeste 0 -- -- 79
2020-01-09 06:00:00 6.9 14 Sudeste 20 Sudeste 0 -- -- 81
2020-01-09 05:00:00 7.3 14 Sudeste 23 Sudeste 0 -- -- 84
2020-01-09 04:00:00 7.7 15 Sudeste 22 Sudeste 0 -- -- 87
2020-01-09 03:00:00 7.6 14 Sudeste 23 Sudeste 0 -- -- 87
2020-01-09 02:00:00 8 15 Sudeste 25 Sudeste 0 -- -- 85
2020-01-09 01:00:00 8 13 Sudeste 20 Sudeste 0 -- -- 83
2020-01-09 00:00:00 8.6 14 Sudeste 22 Sudeste 0 -- -- 83
2020-01-08 23:00:00 8.7 18 Sudeste 22 Sudeste 0 -- -- 77
2020-01-08 22:00:00 6.4 4 Sudeste 11 Sudeste 0 -- -- 86
2020-01-08 21:00:00 6.6 0 Calma 9 Sudeste 0 -- -- 84
2020-01-08 20:00:00 7.2 2 Este 9 Sudeste 0 -- -- 84
2020-01-08 19:00:00 10.5 3 Sudeste 6 Sudeste 0 -- -- 71
2020-01-08 18:00:00 15.5 2 Oeste 7 Oeste 0 -- -- 53
2020-01-08 17:00:00 16.8 5 Oeste 7 Oeste 0 -- -- 48
2020-01-08 16:00:00 16.8 5 Oeste 8 Oeste 0 -- -- 46
2020-01-08 15:00:00 16 4 Oeste 7 Noroeste 0 -- -- 45
2020-01-08 14:00:00 15.3 4 Oeste 6 Oeste 0 -- -- 49
2020-01-08 13:00:00 13.5 3 Norte 7 Norte 0 -- -- 54
2020-01-08 12:00:00 11.6 3 Norte 8 Noroeste 0 -- -- 57
2020-01-08 11:00:00 9.2 2 Noroeste 8 Este 0 -- -- 66
2020-01-08 10:00:00 6.2 3 Este 5 Este 0 -- -- 81
2020-01-08 09:00:00 2.1 0 Calma 6 Sudeste 0 -- -- 89
2020-01-08 08:00:00 1.6 3 Este 8 Este 0 -- -- 90
2020-01-08 07:00:00 2.1 6 Este 10 Sudeste 0 -- -- 89
2020-01-08 06:00:00 3.3 5 Este 10 Este 0 -- -- 84
2020-01-08 05:00:00 3.1 0 Calma 9 Este 0 -- -- 84
2020-01-08 04:00:00 4 6 Este 8 Este 0 -- -- 83
2020-01-08 03:00:00 4.4 0 Calma 8 Este 0 -- -- 78
2020-01-08 02:00:00 4.9 5 Este 8 Este 0 -- -- 77
2020-01-08 01:00:00 6.4 6 Este 12 Sudeste 0 -- -- 75
2020-01-08 00:00:00 7.3 9 Sudeste 16 Sudeste 0 -- -- 75
2020-01-07 23:00:00 6 2 Sudeste 14 Sudeste 0 -- -- 78
2020-01-07 22:00:00 6.1 2 Sudeste 10 Sudeste 0 -- -- 79
2020-01-07 21:00:00 7 7 Este 10 Este 0 -- -- 78
2020-01-07 20:00:00 6.9 0 Calma 10 Este 0 -- -- 80
2020-01-07 19:00:00 9.1 6 Sudeste 9 Este 0 -- -- 74
2020-01-07 18:00:00 16.8 0 Calma 6 Noroeste 0 -- -- 44
2020-01-07 17:00:00 16.7 3 Norte 9 Noroeste 0 -- -- 44
2020-01-07 16:00:00 16.8 6 Norte 10 Norte 0 -- -- 52
2020-01-07 15:00:00 16.2 6 Norte 13 Norte 0 -- -- 50
2020-01-07 14:00:00 15.4 6 Noroeste 12 Noroeste 0 -- -- 60
2020-01-07 13:00:00 14.6 4 Oeste 6 Oeste 0 -- -- 56
2020-01-07 12:00:00 12.7 4 Sudeste 9 Nordeste 0 -- -- 70
2020-01-07 11:00:00 8.7 3 Norte 6 Noroeste 0 -- -- 85
2020-01-07 10:00:00 5 3 Este 10 Norte 0 -- -- 97
2020-01-07 09:00:00 3.1 2 Norte 9 Este 0 -- -- 96
2020-01-07 08:00:00 2.7 5 Sudeste 12 Sudeste 0 -- -- 97
2020-01-07 07:00:00 2.6 2 Sudeste 8 Nordeste 0 -- -- 95
2020-01-07 06:00:00 3.5 6 Este 12 Este 0 -- -- 94
2020-01-07 05:00:00 4.9 9 Sudeste 19 Sudeste 0 -- -- 92
2020-01-07 04:00:00 5.9 12 Sudeste 17 Sudeste 0 -- -- 93
2020-01-07 03:00:00 5.5 10 Sudeste 16 Sudeste 0 -- -- 94
2020-01-07 02:00:00 4.8 12 Sudeste 15 Sudeste 0 -- -- 97
2020-01-07 01:00:00 3.9 6 Sudeste 12 Sudeste 0 -- -- 95
2020-01-07 00:00:00 4.7 3 Sudeste 9 Sudeste 0 -- -- 93
2020-01-06 23:00:00 5.5 4 Este 6 Este 0 -- -- 93
2020-01-06 22:00:00 5.9 0 Calma 7 Este 0 -- -- 91
2020-01-06 21:00:00 6.7 6 Sudeste 9 Este 0 -- -- 87
2020-01-06 20:00:00 8 5 Este 8 Este 0 -- -- 82
2020-01-06 19:00:00 9.9 3 Este 6 Noroeste 0 -- -- 76
2020-01-06 18:00:00 12.7 5 Noroeste 12 Noroeste 0 -- -- 66
2020-01-06 17:00:00 14.6 3 Noroeste 11 Noroeste 0 -- -- 61
2020-01-06 16:00:00 15.3 4 Oeste 8 Sudoeste 0 -- -- 57
2020-01-06 15:00:00 14.4 5 Oeste 10 Oeste 0 -- -- 59
2020-01-06 14:00:00 13.7 5 Noroeste 13 Sudoeste 0 -- -- 61
2020-01-06 13:00:00 12.9 7 Oeste 12 Sudoeste 0 -- -- 66
2020-01-06 12:00:00 11.4 2 Este 11 Este 0 -- -- 72
2020-01-06 11:00:00 10.3 6 Sudeste 9 Sudeste 0 -- -- 80
2020-01-06 10:00:00 6.6 3 Este 6 Sudeste 0 -- -- 94